sensor_id;sensor_type;location;lat;lon;timestamp;pressure;altitude;pressure_sealevel;temperature;humidity
80781;BME280;70341;56.408;10.874;2024-03-07T00:00:58;103253.08;;;18.51;40.30
80781;BME280;70341;56.408;10.874;2024-03-07T00:03:34;103254.69;;;18.52;40.32
80781;BME280;70341;56.408;10.874;2024-03-07T00:06:03;103254.00;;;18.51;40.25
80781;BME280;70341;56.408;10.874;2024-03-07T00:08:33;103255.79;;;18.51;40.21
80781;BME280;70341;56.408;10.874;2024-03-07T00:11:02;103255.08;;;18.51;40.26
80781;BME280;70341;56.408;10.874;2024-03-07T00:13:32;103256.52;;;18.51;40.30
80781;BME280;70341;56.408;10.874;2024-03-07T00:16:02;103254.52;;;18.51;40.30
80781;BME280;70341;56.408;10.874;2024-03-07T00:18:32;103252.58;;;18.50;40.30
80781;BME280;70341;56.408;10.874;2024-03-07T00:21:01;103254.75;;;18.50;40.29
80781;BME280;70341;56.408;10.874;2024-03-07T00:23:31;103253.52;;;18.49;40.26
80781;BME280;70341;56.408;10.874;2024-03-07T00:25:59;103257.99;;;18.50;40.19
80781;BME280;70341;56.408;10.874;2024-03-07T00:28:31;103256.58;;;18.49;40.25
80781;BME280;70341;56.408;10.874;2024-03-07T00:30:59;103255.13;;;18.49;40.33
80781;BME280;70341;56.408;10.874;2024-03-07T00:33:30;103253.58;;;18.47;40.28
80781;BME280;70341;56.408;10.874;2024-03-07T00:36:20;103252.99;;;18.48;40.16
80781;BME280;70341;56.408;10.874;2024-03-07T00:38:48;103253.00;;;18.47;40.17
80781;BME280;70341;56.408;10.874;2024-03-07T00:41:19;103252.66;;;18.47;40.29
80781;BME280;70341;56.408;10.874;2024-03-07T00:43:47;103254.30;;;18.47;40.14
80781;BME280;70341;56.408;10.874;2024-03-07T00:46:17;103257.20;;;18.46;40.14
80781;BME280;70341;56.408;10.874;2024-03-07T00:48:45;103250.91;;;18.46;40.12
80781;BME280;70341;56.408;10.874;2024-03-07T00:51:16;103253.49;;;18.44;40.22
80781;BME280;70341;56.408;10.874;2024-03-07T00:53:44;103250.44;;;18.44;40.12
80781;BME280;70341;56.408;10.874;2024-03-07T00:56:14;103251.19;;;18.43;40.04
80781;BME280;70341;56.408;10.874;2024-03-07T00:58:43;103252.47;;;18.42;40.09
80781;BME280;70341;56.408;10.874;2024-03-07T01:01:12;103253.02;;;18.42;40.07
80781;BME280;70341;56.408;10.874;2024-03-07T01:03:41;103253.25;;;18.41;40.11
80781;BME280;70341;56.408;10.874;2024-03-07T01:06:11;103253.63;;;18.40;40.03
80781;BME280;70341;56.408;10.874;2024-03-07T01:08:40;103252.21;;;18.39;40.03
80781;BME280;70341;56.408;10.874;2024-03-07T01:11:12;103254.77;;;18.39;40.04
80781;BME280;70341;56.408;10.874;2024-03-07T01:13:42;103252.79;;;18.39;40.11
80781;BME280;70341;56.408;10.874;2024-03-07T01:16:11;103254.26;;;18.38;40.15
80781;BME280;70341;56.408;10.874;2024-03-07T01:18:40;103252.09;;;18.38;40.10
80781;BME280;70341;56.408;10.874;2024-03-07T01:21:09;103253.76;;;18.37;39.97
80781;BME280;70341;56.408;10.874;2024-03-07T01:23:38;103249.08;;;18.36;40.06
80781;BME280;70341;56.408;10.874;2024-03-07T01:26:08;103250.17;;;18.36;40.12
80781;BME280;70341;56.408;10.874;2024-03-07T01:28:36;103248.92;;;18.35;40.22
80781;BME280;70341;56.408;10.874;2024-03-07T01:31:07;103246.40;;;18.35;40.07
80781;BME280;70341;56.408;10.874;2024-03-07T01:33:36;103245.16;;;18.34;39.95
80781;BME280;70341;56.408;10.874;2024-03-07T01:36:06;103241.39;;;18.34;40.21
80781;BME280;70341;56.408;10.874;2024-03-07T01:38:34;103243.02;;;18.34;40.03
80781;BME280;70341;56.408;10.874;2024-03-07T01:41:04;103240.34;;;18.33;40.05
80781;BME280;70341;56.408;10.874;2024-03-07T01:43:32;103237.68;;;18.32;39.94
80781;BME280;70341;56.408;10.874;2024-03-07T01:46:03;103239.48;;;18.32;40.01
80781;BME280;70341;56.408;10.874;2024-03-07T01:48:32;103240.55;;;18.32;39.99
80781;BME280;70341;56.408;10.874;2024-03-07T01:51:02;103234.13;;;18.31;39.99
80781;BME280;70341;56.408;10.874;2024-03-07T01:53:34;103238.05;;;18.32;39.95
80781;BME280;70341;56.408;10.874;2024-03-07T01:56:04;103235.20;;;18.31;39.86
80781;BME280;70341;56.408;10.874;2024-03-07T01:58:35;103236.28;;;18.31;40.02
80781;BME280;70341;56.408;10.874;2024-03-07T02:01:06;103237.38;;;18.31;39.93
80781;BME280;70341;56.408;10.874;2024-03-07T02:03:34;103238.46;;;18.30;39.95
80781;BME280;70341;56.408;10.874;2024-03-07T02:06:05;103240.45;;;18.30;40.03
80781;BME280;70341;56.408;10.874;2024-03-07T02:08:34;103238.33;;;18.29;40.23
80781;BME280;70341;56.408;10.874;2024-03-07T02:11:03;103237.64;;;18.28;40.10
80781;BME280;70341;56.408;10.874;2024-03-07T02:13:32;103237.26;;;18.29;40.08
80781;BME280;70341;56.408;10.874;2024-03-07T02:16:02;103241.08;;;18.28;40.06
80781;BME280;70341;56.408;10.874;2024-03-07T02:18:30;103243.25;;;18.27;39.99
80781;BME280;70341;56.408;10.874;2024-03-07T02:20:59;103243.07;;;18.27;40.06
80781;BME280;70341;56.408;10.874;2024-03-07T02:23:27;103239.52;;;18.26;39.83
80781;BME280;70341;56.408;10.874;2024-03-07T02:25:58;103236.45;;;18.26;39.97
80781;BME280;70341;56.408;10.874;2024-03-07T02:28:26;103240.42;;;18.26;40.09
80781;BME280;70341;56.408;10.874;2024-03-07T02:30:56;103241.31;;;18.26;40.04
80781;BME280;70341;56.408;10.874;2024-03-07T02:33:24;103240.05;;;18.26;39.99
80781;BME280;70341;56.408;10.874;2024-03-07T02:35:55;103237.03;;;18.25;40.01
80781;BME280;70341;56.408;10.874;2024-03-07T02:38:23;103240.27;;;18.25;39.97
80781;BME280;70341;56.408;10.874;2024-03-07T02:40:54;103240.09;;;18.25;39.92
80781;BME280;70341;56.408;10.874;2024-03-07T02:43:22;103244.26;;;18.24;39.96
80781;BME280;70341;56.408;10.874;2024-03-07T02:45:52;103243.56;;;18.23;39.93
80781;BME280;70341;56.408;10.874;2024-03-07T02:48:20;103240.52;;;18.23;40.09
80781;BME280;70341;56.408;10.874;2024-03-07T02:50:50;103240.55;;;18.22;40.08
80781;BME280;70341;56.408;10.874;2024-03-07T02:53:18;103241.25;;;18.22;39.98
80781;BME280;70341;56.408;10.874;2024-03-07T02:55:48;103241.41;;;18.22;39.92
80781;BME280;70341;56.408;10.874;2024-03-07T02:58:16;103239.63;;;18.22;40.09
80781;BME280;70341;56.408;10.874;2024-03-07T03:00:47;103236.41;;;18.21;39.99
80781;BME280;70341;56.408;10.874;2024-03-07T03:03:15;103233.52;;;18.21;39.99
80781;BME280;70341;56.408;10.874;2024-03-07T03:05:46;103235.17;;;18.21;40.04
80781;BME280;70341;56.408;10.874;2024-03-07T03:08:14;103230.33;;;18.20;40.13
80781;BME280;70341;56.408;10.874;2024-03-07T03:10:44;103227.27;;;18.20;40.07
80781;BME280;70341;56.408;10.874;2024-03-07T03:13:12;103227.44;;;18.20;40.01
80781;BME280;70341;56.408;10.874;2024-03-07T03:15:42;103225.52;;;18.19;40.08
80781;BME280;70341;56.408;10.874;2024-03-07T03:18:11;103219.92;;;18.19;40.00
80781;BME280;70341;56.408;10.874;2024-03-07T03:20:41;103221.39;;;18.18;40.01
80781;BME280;70341;56.408;10.874;2024-03-07T03:23:10;103223.75;;;18.18;40.08
80781;BME280;70341;56.408;10.874;2024-03-07T03:25:49;103221.61;;;18.17;39.92
80781;BME280;70341;56.408;10.874;2024-03-07T03:28:19;103217.48;;;18.17;39.93
80781;BME280;70341;56.408;10.874;2024-03-07T03:30:50;103218.77;;;18.16;40.05
80781;BME280;70341;56.408;10.874;2024-03-07T03:33:19;103215.19;;;18.16;40.17
80781;BME280;70341;56.408;10.874;2024-03-07T03:35:49;103212.91;;;18.14;40.05
80781;BME280;70341;56.408;10.874;2024-03-07T03:38:18;103214.68;;;18.15;40.00
80781;BME280;70341;56.408;10.874;2024-03-07T03:40:47;103212.35;;;18.14;40.10
80781;BME280;70341;56.408;10.874;2024-03-07T03:43:16;103214.53;;;18.14;40.03
80781;BME280;70341;56.408;10.874;2024-03-07T03:45:46;103215.27;;;18.13;40.11
80781;BME280;70341;56.408;10.874;2024-03-07T03:48:15;103215.50;;;18.12;40.07
80781;BME280;70341;56.408;10.874;2024-03-07T03:50:45;103218.96;;;18.10;40.15
80781;BME280;70341;56.408;10.874;2024-03-07T03:53:13;103218.42;;;18.10;40.06
80781;BME280;70341;56.408;10.874;2024-03-07T03:55:43;103215.77;;;18.09;40.17
80781;BME280;70341;56.408;10.874;2024-03-07T03:58:11;103222.20;;;18.10;40.07
80781;BME280;70341;56.408;10.874;2024-03-07T04:00:42;103220.09;;;18.08;40.02
80781;BME280;70341;56.408;10.874;2024-03-07T04:03:10;103221.18;;;18.08;39.99
80781;BME280;70341;56.408;10.874;2024-03-07T04:05:40;103218.52;;;18.07;40.07
80781;BME280;70341;56.408;10.874;2024-03-07T04:08:09;103219.23;;;18.07;40.08
80781;BME280;70341;56.408;10.874;2024-03-07T04:10:39;103217.45;;;18.07;40.13
80781;BME280;70341;56.408;10.874;2024-03-07T04:13:08;103217.64;;;18.06;40.14
80781;BME280;70341;56.408;10.874;2024-03-07T04:15:38;103220.00;;;18.06;40.12
80781;BME280;70341;56.408;10.874;2024-03-07T04:18:13;103220.01;;;18.05;40.09
80781;BME280;70341;56.408;10.874;2024-03-07T04:20:41;103220.41;;;18.04;40.11
80781;BME280;70341;56.408;10.874;2024-03-07T04:23:11;103217.90;;;18.04;40.23
80781;BME280;70341;56.408;10.874;2024-03-07T04:25:40;103222.95;;;18.04;40.22
80781;BME280;70341;56.408;10.874;2024-03-07T04:28:10;103222.43;;;18.03;40.15
80781;BME280;70341;56.408;10.874;2024-03-07T04:30:39;103225.67;;;18.03;40.09
80781;BME280;70341;56.408;10.874;2024-03-07T04:33:09;103226.58;;;18.03;40.29
80781;BME280;70341;56.408;10.874;2024-03-07T04:35:38;103223.56;;;18.02;40.16
80781;BME280;70341;56.408;10.874;2024-03-07T04:38:07;103223.02;;;18.01;40.20
80781;BME280;70341;56.408;10.874;2024-03-07T04:40:37;103223.23;;;18.00;40.27
80781;BME280;70341;56.408;10.874;2024-03-07T04:43:07;103226.45;;;18.01;40.10
80781;BME280;70341;56.408;10.874;2024-03-07T04:45:37;103226.11;;;18.01;40.11
80781;BME280;70341;56.408;10.874;2024-03-07T04:48:08;103226.11;;;18.01;40.22
80781;BME280;70341;56.408;10.874;2024-03-07T04:50:37;103223.06;;;18.00;40.25
80781;BME280;70341;56.408;10.874;2024-03-07T04:53:06;103223.63;;;18.00;40.22
80781;BME280;70341;56.408;10.874;2024-03-07T04:55:35;103226.69;;;17.99;40.05
80781;BME280;70341;56.408;10.874;2024-03-07T04:58:05;103222.94;;;17.99;40.18
80781;BME280;70341;56.408;10.874;2024-03-07T05:00:33;103224.73;;;17.98;40.06
80781;BME280;70341;56.408;10.874;2024-03-07T05:03:03;103226.70;;;17.99;40.15
80781;BME280;70341;56.408;10.874;2024-03-07T05:05:31;103230.46;;;18.00;40.24
80781;BME280;70341;56.408;10.874;2024-03-07T05:08:01;103226.89;;;17.99;40.34
80781;BME280;70341;56.408;10.874;2024-03-07T05:10:29;103226.53;;;17.99;40.21
80781;BME280;70341;56.408;10.874;2024-03-07T05:12:59;103222.77;;;17.98;40.31
80781;BME280;70341;56.408;10.874;2024-03-07T05:15:27;103226.71;;;17.98;40.23
80781;BME280;70341;56.408;10.874;2024-03-07T05:17:58;103226.18;;;17.98;40.29
80781;BME280;70341;56.408;10.874;2024-03-07T05:20:26;103223.49;;;17.98;40.28
80781;BME280;70341;56.408;10.874;2024-03-07T05:22:56;103226.01;;;17.98;40.37
80781;BME280;70341;56.408;10.874;2024-03-07T05:25:24;103223.15;;;17.98;40.39
80781;BME280;70341;56.408;10.874;2024-03-07T05:27:56;103225.30;;;17.97;40.26
80781;BME280;70341;56.408;10.874;2024-03-07T05:30:24;103228.02;;;17.98;40.43
80781;BME280;70341;56.408;10.874;2024-03-07T05:32:54;103229.09;;;17.97;40.40
80781;BME280;70341;56.408;10.874;2024-03-07T05:35:22;103235.58;;;17.97;40.37
80781;BME280;70341;56.408;10.874;2024-03-07T05:37:52;103232.52;;;17.96;40.35
80781;BME280;70341;56.408;10.874;2024-03-07T05:40:21;103234.52;;;17.95;40.51
80781;BME280;70341;56.408;10.874;2024-03-07T05:42:51;103235.03;;;17.96;40.38
80781;BME280;70341;56.408;10.874;2024-03-07T05:45:19;103231.30;;;17.95;40.29
80781;BME280;70341;56.408;10.874;2024-03-07T05:47:48;103232.31;;;17.97;40.40
80781;BME280;70341;56.408;10.874;2024-03-07T05:50:17;103233.71;;;17.99;40.16
80781;BME280;70341;56.408;10.874;2024-03-07T05:52:47;103232.20;;;18.01;40.27
80781;BME280;70341;56.408;10.874;2024-03-07T05:55:15;103231.63;;;18.02;40.23
80781;BME280;70341;56.408;10.874;2024-03-07T05:57:46;103231.91;;;18.04;40.17
80781;BME280;70341;56.408;10.874;2024-03-07T06:00:15;103236.89;;;18.06;40.14
80781;BME280;70341;56.408;10.874;2024-03-07T06:02:44;103239.60;;;18.06;40.09
80781;BME280;70341;56.408;10.874;2024-03-07T06:05:13;103238.69;;;18.06;40.00
80781;BME280;70341;56.408;10.874;2024-03-07T06:07:42;103239.77;;;18.06;40.18
80781;BME280;70341;56.408;10.874;2024-03-07T06:10:12;103240.87;;;18.06;39.97
80781;BME280;70341;56.408;10.874;2024-03-07T06:12:42;103243.02;;;18.06;40.11
80781;BME280;70341;56.408;10.874;2024-03-07T06:15:21;103242.34;;;18.05;40.06
80781;BME280;70341;56.408;10.874;2024-03-07T06:17:49;103246.15;;;18.04;40.07
80781;BME280;70341;56.408;10.874;2024-03-07T06:20:20;103249.19;;;18.05;40.01
80781;BME280;70341;56.408;10.874;2024-03-07T06:22:49;103248.84;;;18.04;40.03
80781;BME280;70341;56.408;10.874;2024-03-07T06:25:21;103250.83;;;18.04;39.97
80781;BME280;70341;56.408;10.874;2024-03-07T06:27:49;103250.27;;;18.04;39.95
80781;BME280;70341;56.408;10.874;2024-03-07T06:30:20;103254.41;;;18.05;39.91
80781;BME280;70341;56.408;10.874;2024-03-07T06:32:49;103255.48;;;18.04;39.94
80781;BME280;70341;56.408;10.874;2024-03-07T06:35:18;103260.53;;;18.04;39.98
80781;BME280;70341;56.408;10.874;2024-03-07T06:37:47;103258.19;;;18.04;39.87
80781;BME280;70341;56.408;10.874;2024-03-07T06:40:17;103259.23;;;18.05;39.95
80781;BME280;70341;56.408;10.874;2024-03-07T06:42:46;103260.68;;;18.05;39.88
80781;BME280;70341;56.408;10.874;2024-03-07T06:45:16;103259.23;;;18.05;39.99
80781;BME280;70341;56.408;10.874;2024-03-07T06:47:45;103261.92;;;18.06;39.87
80781;BME280;70341;56.408;10.874;2024-03-07T06:50:14;103257.77;;;18.06;39.98
80781;BME280;70341;56.408;10.874;2024-03-07T06:52:59;103255.28;;;18.05;39.92
80781;BME280;70341;56.408;10.874;2024-03-07T06:55:36;103258.27;;;18.07;39.94
80781;BME280;70341;56.408;10.874;2024-03-07T06:58:04;103257.89;;;18.08;39.77
80781;BME280;70341;56.408;10.874;2024-03-07T07:00:34;103253.93;;;18.08;39.86
80781;BME280;70341;56.408;10.874;2024-03-07T07:03:03;103256.76;;;18.10;39.96
80781;BME280;70341;56.408;10.874;2024-03-07T07:05:33;103256.91;;;18.11;39.95
80781;BME280;70341;56.408;10.874;2024-03-07T07:08:02;103256.89;;;18.12;39.90
80781;BME280;70341;56.408;10.874;2024-03-07T07:10:34;103260.62;;;18.13;39.84
80781;BME280;70341;56.408;10.874;2024-03-07T07:13:03;103264.54;;;18.14;39.80
80781;BME280;70341;56.408;10.874;2024-03-07T07:15:33;103265.94;;;18.15;39.84
80781;BME280;70341;56.408;10.874;2024-03-07T07:18:01;103263.88;;;18.18;39.90
80781;BME280;70341;56.408;10.874;2024-03-07T07:20:31;103261.82;;;18.20;39.95
80781;BME280;70341;56.408;10.874;2024-03-07T07:23:00;103266.09;;;18.22;39.68
80781;BME280;70341;56.408;10.874;2024-03-07T07:25:30;103262.80;;;18.24;39.69
80781;BME280;70341;56.408;10.874;2024-03-07T07:28:00;103262.52;;;18.26;39.67
80781;BME280;70341;56.408;10.874;2024-03-07T07:30:31;103263.05;;;18.27;39.66
80781;BME280;70341;56.408;10.874;2024-03-07T07:32:59;103265.17;;;18.29;39.71
80781;BME280;70341;56.408;10.874;2024-03-07T07:35:30;103263.45;;;18.32;39.63
80781;BME280;70341;56.408;10.874;2024-03-07T07:37:58;103265.15;;;18.34;39.57
80781;BME280;70341;56.408;10.874;2024-03-07T07:40:28;103264.02;;;18.36;39.59
80781;BME280;70341;56.408;10.874;2024-03-07T07:42:56;103264.15;;;18.38;39.51
80781;BME280;70341;56.408;10.874;2024-03-07T07:45:27;103263.71;;;18.40;39.50
80781;BME280;70341;56.408;10.874;2024-03-07T07:47:55;103263.30;;;18.42;39.49
80781;BME280;70341;56.408;10.874;2024-03-07T07:50:26;103266.84;;;18.43;39.35
80781;BME280;70341;56.408;10.874;2024-03-07T07:52:57;103262.87;;;18.44;39.23
80781;BME280;70341;56.408;10.874;2024-03-07T07:55:29;103267.45;;;18.46;39.49
80781;BME280;70341;56.408;10.874;2024-03-07T07:57:59;103269.73;;;18.49;39.32
80781;BME280;70341;56.408;10.874;2024-03-07T08:00:30;103267.88;;;18.50;39.38
80781;BME280;70341;56.408;10.874;2024-03-07T08:03:03;103263.85;;;18.52;39.39
80781;BME280;70341;56.408;10.874;2024-03-07T08:05:35;103263.04;;;18.55;39.32
80781;BME280;70341;56.408;10.874;2024-03-07T08:08:08;103265.07;;;18.58;39.23
80781;BME280;70341;56.408;10.874;2024-03-07T08:10:39;103259.94;;;18.62;39.20
80781;BME280;70341;56.408;10.874;2024-03-07T08:13:14;103265.02;;;18.72;39.22
80781;BME280;70341;56.408;10.874;2024-03-07T08:15:42;103262.94;;;18.80;39.08
80781;BME280;70341;56.408;10.874;2024-03-07T08:18:12;103264.49;;;18.88;38.93
80781;BME280;70341;56.408;10.874;2024-03-07T08:20:41;103262.52;;;18.93;38.74
80781;BME280;70341;56.408;10.874;2024-03-07T08:23:12;103263.77;;;18.98;38.67
80781;BME280;70341;56.408;10.874;2024-03-07T08:25:42;103266.13;;;19.03;38.80
80781;BME280;70341;56.408;10.874;2024-03-07T08:28:12;103268.60;;;19.09;38.54
80781;BME280;70341;56.408;10.874;2024-03-07T08:30:40;103274.77;;;19.13;38.43
80781;BME280;70341;56.408;10.874;2024-03-07T08:33:10;103273.58;;;19.16;38.33
80781;BME280;70341;56.408;10.874;2024-03-07T08:35:39;103275.09;;;19.19;38.34
80781;BME280;70341;56.408;10.874;2024-03-07T08:38:08;103273.70;;;19.23;38.25
80781;BME280;70341;56.408;10.874;2024-03-07T08:40:37;103276.23;;;19.28;38.18
80781;BME280;70341;56.408;10.874;2024-03-07T08:43:07;103278.09;;;19.36;38.10
80781;BME280;70341;56.408;10.874;2024-03-07T08:45:36;103274.19;;;19.44;38.10
80781;BME280;70341;56.408;10.874;2024-03-07T08:48:06;103270.69;;;19.56;38.05
80781;BME280;70341;56.408;10.874;2024-03-07T08:50:36;103276.62;;;19.71;37.89
80781;BME280;70341;56.408;10.874;2024-03-07T08:53:05;103273.46;;;19.83;37.68
80781;BME280;70341;56.408;10.874;2024-03-07T08:55:34;103268.55;;;19.94;37.36
80781;BME280;70341;56.408;10.874;2024-03-07T08:58:04;103272.61;;;20.05;37.30
80781;BME280;70341;56.408;10.874;2024-03-07T09:00:34;103269.73;;;20.14;37.01
80781;BME280;70341;56.408;10.874;2024-03-07T09:03:07;103263.38;;;20.20;36.89
80781;BME280;70341;56.408;10.874;2024-03-07T09:05:37;103264.11;;;20.28;36.75
80781;BME280;70341;56.408;10.874;2024-03-07T09:08:06;103263.65;;;20.35;36.63
80781;BME280;70341;56.408;10.874;2024-03-07T09:10:35;103262.69;;;20.46;36.59
80781;BME280;70341;56.408;10.874;2024-03-07T09:13:04;103263.68;;;20.56;36.42
80781;BME280;70341;56.408;10.874;2024-03-07T09:15:33;103262.45;;;20.69;36.33
80781;BME280;70341;56.408;10.874;2024-03-07T09:18:04;103259.88;;;20.82;36.17
80781;BME280;70341;56.408;10.874;2024-03-07T09:20:33;103258.97;;;20.95;35.98
80781;BME280;70341;56.408;10.874;2024-03-07T09:23:04;103259.18;;;21.07;35.93
80781;BME280;70341;56.408;10.874;2024-03-07T09:25:32;103261.29;;;21.20;35.79
80781;BME280;70341;56.408;10.874;2024-03-07T09:28:02;103263.67;;;21.36;35.58
80781;BME280;70341;56.408;10.874;2024-03-07T09:30:30;103260.63;;;21.52;35.17
80781;BME280;70341;56.408;10.874;2024-03-07T09:33:01;103261.82;;;21.69;34.95
80781;BME280;70341;56.408;10.874;2024-03-07T09:35:29;103264.98;;;21.86;34.94
80781;BME280;70341;56.408;10.874;2024-03-07T09:37:59;103262.47;;;22.05;34.71
80781;BME280;70341;56.408;10.874;2024-03-07T09:40:27;103259.47;;;22.18;34.35
80781;BME280;70341;56.408;10.874;2024-03-07T09:43:00;103267.31;;;22.32;34.13
80781;BME280;70341;56.408;10.874;2024-03-07T09:45:30;103264.56;;;22.43;34.02
80781;BME280;70341;56.408;10.874;2024-03-07T09:48:02;103269.20;;;22.56;33.63
80781;BME280;70341;56.408;10.874;2024-03-07T09:50:31;103265.18;;;22.67;33.47
80781;BME280;70341;56.408;10.874;2024-03-07T09:53:03;103266.20;;;22.79;33.43
80781;BME280;70341;56.408;10.874;2024-03-07T09:55:32;103266.51;;;22.92;33.12
80781;BME280;70341;56.408;10.874;2024-03-07T09:58:06;103262.19;;;23.05;32.86
80781;BME280;70341;56.408;10.874;2024-03-07T10:00:40;103259.60;;;23.16;32.64
80781;BME280;70341;56.408;10.874;2024-03-07T10:03:09;103255.27;;;23.29;32.55
80781;BME280;70341;56.408;10.874;2024-03-07T10:05:39;103255.17;;;23.41;32.26
80781;BME280;70341;56.408;10.874;2024-03-07T10:08:08;103255.26;;;23.52;31.90
80781;BME280;70341;56.408;10.874;2024-03-07T10:10:38;103251.95;;;23.64;31.65
80781;BME280;70341;56.408;10.874;2024-03-07T10:13:07;103252.83;;;23.74;31.49
80781;BME280;70341;56.408;10.874;2024-03-07T10:15:36;103257.48;;;23.85;31.35
80781;BME280;70341;56.408;10.874;2024-03-07T10:18:07;103251.66;;;23.95;31.18
80781;BME280;70341;56.408;10.874;2024-03-07T10:20:37;103251.27;;;24.05;31.01
80781;BME280;70341;56.408;10.874;2024-03-07T10:23:05;103254.96;;;24.13;30.82
80781;BME280;70341;56.408;10.874;2024-03-07T10:25:35;103249.77;;;24.21;30.74
80781;BME280;70341;56.408;10.874;2024-03-07T10:28:04;103253.65;;;24.30;30.68
80781;BME280;70341;56.408;10.874;2024-03-07T10:30:44;103252.50;;;24.37;30.41
80781;BME280;70341;56.408;10.874;2024-03-07T10:33:14;103251.33;;;24.45;30.21
80781;BME280;70341;56.408;10.874;2024-03-07T10:35:47;103251.23;;;24.53;30.22
80781;BME280;70341;56.408;10.874;2024-03-07T10:38:17;103258.06;;;24.60;30.20
80781;BME280;70341;56.408;10.874;2024-03-07T10:40:53;103257.79;;;24.68;29.81
80781;BME280;70341;56.408;10.874;2024-03-07T10:43:29;103254.05;;;24.76;29.78
80781;BME280;70341;56.408;10.874;2024-03-07T10:46:05;103251.80;;;24.83;29.69
80781;BME280;70341;56.408;10.874;2024-03-07T10:48:39;103249.90;;;24.90;29.55
80781;BME280;70341;56.408;10.874;2024-03-07T10:54:24;103240.80;;;25.06;29.28
80781;BME280;70341;56.408;10.874;2024-03-07T10:57:29;103239.22;;;25.14;29.09
80781;BME280;70341;56.408;10.874;2024-03-07T11:00:05;103232.92;;;25.21;29.07
80781;BME280;70341;56.408;10.874;2024-03-07T11:02:49;103234.31;;;25.28;28.91
80781;BME280;70341;56.408;10.874;2024-03-07T11:05:26;103233.56;;;25.34;28.81
80781;BME280;70341;56.408;10.874;2024-03-07T11:08:01;103232.64;;;25.40;28.71
80781;BME280;70341;56.408;10.874;2024-03-07T11:10:33;103230.05;;;25.46;28.67
80781;BME280;70341;56.408;10.874;2024-03-07T11:13:10;103232.40;;;25.52;28.63
80781;BME280;70341;56.408;10.874;2024-03-07T11:15:45;103229.28;;;25.58;28.46
80781;BME280;70341;56.408;10.874;2024-03-07T11:18:17;103232.64;;;25.66;28.41
80781;BME280;70341;56.408;10.874;2024-03-07T11:20:46;103229.05;;;25.74;28.33
80781;BME280;70341;56.408;10.874;2024-03-07T11:23:32;103228.83;;;25.80;28.22
80781;BME280;70341;56.408;10.874;2024-03-07T11:26:05;103222.19;;;25.86;28.19
80781;BME280;70341;56.408;10.874;2024-03-07T11:28:37;103223.13;;;25.95;28.06
80781;BME280;70341;56.408;10.874;2024-03-07T11:31:13;103222.34;;;26.01;28.03
80781;BME280;70341;56.408;10.874;2024-03-07T11:34:17;103222.69;;;26.07;27.81
80781;BME280;70341;56.408;10.874;2024-03-07T11:36:48;103220.92;;;26.14;27.94
80781;BME280;70341;56.408;10.874;2024-03-07T11:39:45;103219.42;;;26.21;27.84
80781;BME280;70341;56.408;10.874;2024-03-07T11:42:28;103219.51;;;26.27;27.81
80781;BME280;70341;56.408;10.874;2024-03-07T11:45:00;103217.71;;;26.32;27.62
80781;BME280;70341;56.408;10.874;2024-03-07T11:47:38;103215.04;;;26.37;27.67
80781;BME280;70341;56.408;10.874;2024-03-07T11:50:09;103212.27;;;26.43;27.58
80781;BME280;70341;56.408;10.874;2024-03-07T11:52:38;103207.55;;;26.48;27.42
80781;BME280;70341;56.408;10.874;2024-03-07T11:55:08;103204.66;;;26.53;27.40
80781;BME280;70341;56.408;10.874;2024-03-07T11:57:36;103205.27;;;26.57;27.33
80781;BME280;70341;56.408;10.874;2024-03-07T12:00:10;103204.70;;;26.62;27.33
80781;BME280;70341;56.408;10.874;2024-03-07T12:02:40;103209.07;;;26.68;27.05
80781;BME280;70341;56.408;10.874;2024-03-07T12:05:10;103208.73;;;26.73;27.04
80781;BME280;70341;56.408;10.874;2024-03-07T12:07:39;103205.83;;;26.78;27.13
80781;BME280;70341;56.408;10.874;2024-03-07T12:10:10;103204.72;;;26.83;26.84
80781;BME280;70341;56.408;10.874;2024-03-07T12:12:38;103194.48;;;26.86;26.94
80781;BME280;70341;56.408;10.874;2024-03-07T12:15:09;103195.45;;;26.91;26.82
80781;BME280;70341;56.408;10.874;2024-03-07T12:17:38;103192.50;;;26.93;26.86
80781;BME280;70341;56.408;10.874;2024-03-07T12:20:08;103194.45;;;26.97;26.77
80781;BME280;70341;56.408;10.874;2024-03-07T12:22:37;103191.70;;;27.00;26.69
80781;BME280;70341;56.408;10.874;2024-03-07T12:25:07;103188.73;;;27.03;26.60
80781;BME280;70341;56.408;10.874;2024-03-07T12:27:36;103184.67;;;27.06;26.47
80781;BME280;70341;56.408;10.874;2024-03-07T12:30:15;103183.10;;;27.08;26.53
80781;BME280;70341;56.408;10.874;2024-03-07T12:32:50;103178.92;;;27.10;26.39
80781;BME280;70341;56.408;10.874;2024-03-07T12:35:19;103184.13;;;27.14;26.28
80781;BME280;70341;56.408;10.874;2024-03-07T12:37:48;103184.27;;;27.17;26.27
80781;BME280;70341;56.408;10.874;2024-03-07T12:40:20;103183.02;;;27.19;26.40
80781;BME280;70341;56.408;10.874;2024-03-07T12:42:52;103182.89;;;27.21;26.34
80781;BME280;70341;56.408;10.874;2024-03-07T12:45:21;103178.26;;;27.22;26.33
80781;BME280;70341;56.408;10.874;2024-03-07T12:47:54;103181.05;;;27.24;26.17
80781;BME280;70341;56.408;10.874;2024-03-07T12:50:22;103183.75;;;27.27;26.02
80781;BME280;70341;56.408;10.874;2024-03-07T12:52:52;103180.42;;;27.30;26.12
80781;BME280;70341;56.408;10.874;2024-03-07T12:55:20;103181.52;;;27.32;26.12
80781;BME280;70341;56.408;10.874;2024-03-07T12:57:51;103180.02;;;27.36;26.26
80781;BME280;70341;56.408;10.874;2024-03-07T13:00:20;103178.17;;;27.39;25.95